createdAt,value
2018-12-30T00:00:19.885Z,18.65
2018-12-30T00:01:20.460Z,18.58
2018-12-30T00:02:21.036Z,18.62
2018-12-30T00:03:21.923Z,18.59
2018-12-30T00:04:22.823Z,18.59
2018-12-30T00:05:23.627Z,18.68
2018-12-30T00:06:24.198Z,18.58
2018-12-30T00:07:24.957Z,18.66
2018-12-30T00:08:25.581Z,18.62
2018-12-30T00:09:26.537Z,18.47
2018-12-30T00:10:27.116Z,18.52
2018-12-30T00:11:27.686Z,18.44
2018-12-30T00:12:28.261Z,18.41
2018-12-30T00:13:28.838Z,18.40
2018-12-30T00:14:29.463Z,18.33
2018-12-30T00:15:30.038Z,18.26
2018-12-30T00:16:30.614Z,18.22
2018-12-30T00:17:31.189Z,18.26
2018-12-30T00:18:32.075Z,18.23
2018-12-30T00:19:42.395Z,18.20
2018-12-30T00:20:34.221Z,18.26
2018-12-30T00:21:34.796Z,18.13
2018-12-30T00:22:35.379Z,18.25
2018-12-30T00:23:35.954Z,18.15
2018-12-30T00:24:36.531Z,18.16
2018-12-30T00:25:37.156Z,18.07
2018-12-30T00:26:37.731Z,18.00
2018-12-30T00:27:38.353Z,18.01
2018-12-30T00:28:39.254Z,17.97
2018-12-30T00:29:39.829Z,17.92
2018-12-30T00:30:40.507Z,17.95
2018-12-30T00:31:41.083Z,17.94
2018-12-30T00:32:41.657Z,18.00
2018-12-30T00:35:01.565Z,17.97
2018-12-30T00:54:38.355Z,17.74
2018-12-30T00:55:38.931Z,17.71
2018-12-30T00:56:39.507Z,17.68
2018-12-30T00:57:40.085Z,17.70
2018-12-30T00:58:40.707Z,17.63
2018-12-30T00:59:41.283Z,17.67
2018-12-30T01:00:41.858Z,17.68
2018-12-30T01:01:42.518Z,17.59
2018-12-30T01:02:43.092Z,17.64
2018-12-30T01:03:43.716Z,17.65
2018-12-30T01:04:44.292Z,17.71
2018-12-30T01:05:44.944Z,17.63
2018-12-30T01:06:45.478Z,17.63
2018-12-30T01:07:46.052Z,17.60
2018-12-30T01:08:46.827Z,17.52
2018-12-30T01:09:47.405Z,17.52
2018-12-30T01:10:48.230Z,17.56
2018-12-30T01:11:48.807Z,17.49
2018-12-30T01:12:49.383Z,17.45
2018-12-30T01:13:49.959Z,17.39
2018-12-30T01:14:50.584Z,17.44
2018-12-30T01:15:51.161Z,17.49
2018-12-30T01:16:51.733Z,17.48
2018-12-30T01:17:52.308Z,17.45
2018-12-30T01:18:52.882Z,17.49
2018-12-30T01:19:53.624Z,17.44
2018-12-30T01:20:54.200Z,17.44
2018-12-30T01:21:54.775Z,17.44
2018-12-30T01:22:55.349Z,17.44
2018-12-30T01:23:55.925Z,17.45
2018-12-30T01:24:56.499Z,17.41
2018-12-30T01:25:57.074Z,17.41
2018-12-30T01:26:57.650Z,17.31
2018-12-30T01:27:58.276Z,17.41
2018-12-30T01:28:59.164Z,17.30
2018-12-30T01:29:59.741Z,17.24
2018-12-30T01:31:00.365Z,17.33
2018-12-30T01:32:00.937Z,17.23
2018-12-30T01:33:01.511Z,17.36
2018-12-30T01:34:02.085Z,17.33
2018-12-30T01:35:02.659Z,17.29
2018-12-30T01:36:03.232Z,17.24
2018-12-30T01:37:03.857Z,17.34
2018-12-30T01:38:04.675Z,17.38
2018-12-30T01:39:05.249Z,17.24
2018-12-30T01:40:05.825Z,17.26
2018-12-30T01:41:06.400Z,17.29
2018-12-30T01:42:06.976Z,17.20
2018-12-30T01:43:07.550Z,17.12
2018-12-30T01:44:08.126Z,17.15
2018-12-30T01:45:08.750Z,17.16
2018-12-30T01:46:09.325Z,17.19
2018-12-30T01:47:09.998Z,17.16
2018-12-30T01:48:10.622Z,17.16
2018-12-30T01:49:11.243Z,17.20
2018-12-30T01:50:11.821Z,17.20
2018-12-30T01:51:12.394Z,17.19
2018-12-30T01:52:12.969Z,17.19
2018-12-30T01:53:13.593Z,17.16
2018-12-30T01:54:14.171Z,17.19
2018-12-30T01:55:14.745Z,17.14
2018-12-30T01:56:15.321Z,17.22
2018-12-30T01:57:16.252Z,17.16
2018-12-30T01:58:16.828Z,17.05
2018-12-30T01:59:17.403Z,17.14
2018-12-30T02:00:17.978Z,17.12
2018-12-30T02:01:18.556Z,17.15
2018-12-30T02:02:19.180Z,17.11
2018-12-30T02:03:19.754Z,17.09
2018-12-30T02:04:20.328Z,17.24
2018-12-30T02:05:21.054Z,17.30
2018-12-30T02:06:21.981Z,17.30
2018-12-30T02:07:22.560Z,17.34
2018-12-30T02:08:23.174Z,17.19
2018-12-30T02:09:23.746Z,17.09
2018-12-30T02:10:24.322Z,17.23
2018-12-30T02:11:24.894Z,17.20
2018-12-30T02:12:25.519Z,17.16
2018-12-30T02:13:26.094Z,17.14
2018-12-30T02:14:26.671Z,17.23
2018-12-30T02:15:27.440Z,17.24
2018-12-30T02:16:28.018Z,17.26
2018-12-30T02:17:28.590Z,17.24
2018-12-30T02:18:29.165Z,17.08
2018-12-30T02:19:29.739Z,17.26
2018-12-30T02:20:30.317Z,17.23
2018-12-30T02:21:30.940Z,17.24
2018-12-30T02:22:31.516Z,17.26
2018-12-30T02:23:32.091Z,17.31
2018-12-30T02:24:32.716Z,17.26
2018-12-30T02:25:33.502Z,17.19
2018-12-30T02:26:34.074Z,17.11
2018-12-30T02:27:34.699Z,17.15
2018-12-30T02:28:35.273Z,17.23
2018-12-30T02:29:35.848Z,17.09
2018-12-30T02:30:36.424Z,17.16
2018-12-30T02:31:37.001Z,17.01
2018-12-30T02:32:37.574Z,17.15
2018-12-30T02:33:38.149Z,17.12
2018-12-30T02:34:38.763Z,17.11
2018-12-30T02:35:39.338Z,17.08
2018-12-30T02:36:39.912Z,17.12
2018-12-30T02:37:40.484Z,17.01
2018-12-30T02:38:41.061Z,17.16
2018-12-30T02:39:41.632Z,17.16
2018-12-30T02:40:42.259Z,17.27
2018-12-30T02:41:42.883Z,17.27
2018-12-30T02:42:43.456Z,17.26
2018-12-30T02:43:44.031Z,17.27
2018-12-30T02:44:44.814Z,17.24
2018-12-30T02:45:45.378Z,17.26
2018-12-30T02:46:46.006Z,17.33
2018-12-30T02:47:46.581Z,17.36
2018-12-30T02:48:47.169Z,17.38
2018-12-30T02:49:47.732Z,17.44
2018-12-30T02:50:48.307Z,17.51
2018-12-30T02:51:50.355Z,17.56
2018-12-30T02:52:50.456Z,17.54
2018-12-30T02:53:51.027Z,17.59
2018-12-30T02:54:51.775Z,17.49
2018-12-30T02:55:52.348Z,17.48
2018-12-30T02:56:52.974Z,17.51
2018-12-30T02:57:53.549Z,17.48
2018-12-30T02:58:54.122Z,17.45
2018-12-30T02:59:54.700Z,17.44
2018-12-30T03:00:55.317Z,17.31
2018-12-30T03:01:55.894Z,17.31
2018-12-30T03:02:56.469Z,17.12
2018-12-30T03:03:57.113Z,17.15
2018-12-30T03:04:57.738Z,17.06
2018-12-30T03:05:58.311Z,17.14
2018-12-30T03:06:58.937Z,17.02
2018-12-30T03:07:59.553Z,17.09
2018-12-30T03:09:00.130Z,17.11
2018-12-30T03:10:00.703Z,17.09
2018-12-30T03:11:01.373Z,17.20
2018-12-30T03:12:01.951Z,17.16
2018-12-30T03:13:02.525Z,17.11
2018-12-30T03:14:03.100Z,17.01
2018-12-30T03:15:03.833Z,17.14
2018-12-30T03:16:04.406Z,17.09
2018-12-30T03:17:05.028Z,17.16
2018-12-30T03:18:05.652Z,17.20
2018-12-30T03:19:06.229Z,17.04
2018-12-30T03:20:06.800Z,17.05
2018-12-30T03:21:07.375Z,16.97
2018-12-30T03:22:07.952Z,16.93
2018-12-30T03:23:08.524Z,16.94
2018-12-30T03:24:09.094Z,17.05
2018-12-30T03:25:09.666Z,16.96
2018-12-30T03:26:10.239Z,16.94
2018-12-30T03:27:10.814Z,16.81
2018-12-30T03:28:11.438Z,16.94
2018-12-30T03:29:12.012Z,16.90
2018-12-30T03:30:12.588Z,16.83
2018-12-30T03:31:13.165Z,16.89
2018-12-30T03:32:13.739Z,16.79
2018-12-30T03:33:14.358Z,16.83
2018-12-30T03:34:14.975Z,16.84
2018-12-30T03:35:15.599Z,16.86
2018-12-30T03:36:16.173Z,16.78
2018-12-30T03:37:16.750Z,16.78
2018-12-30T03:38:17.524Z,16.78
2018-12-30T03:39:18.139Z,16.81
2018-12-30T03:40:18.718Z,16.71
2018-12-30T03:41:19.334Z,16.78
2018-12-30T03:42:20.413Z,16.74
2018-12-30T03:43:20.977Z,16.74
2018-12-30T03:44:21.548Z,16.81
2018-12-30T03:45:22.120Z,16.76
2018-12-30T03:46:22.696Z,16.79
2018-12-30T03:47:23.269Z,16.72
2018-12-30T03:48:23.844Z,16.74
2018-12-30T03:49:24.467Z,16.74
2018-12-30T03:50:25.047Z,16.76
2018-12-30T03:51:25.668Z,16.86
2018-12-30T03:52:26.242Z,16.87
2018-12-30T03:53:26.819Z,16.76
2018-12-30T03:54:27.387Z,16.84
2018-12-30T03:55:27.961Z,16.90
2018-12-30T03:56:28.533Z,16.84
2018-12-30T03:57:29.105Z,16.94
2018-12-30T03:58:29.728Z,16.97
2018-12-30T03:59:30.305Z,17.02
2018-12-30T04:00:30.879Z,16.99
2018-12-30T04:01:31.456Z,17.02
2018-12-30T04:02:32.029Z,17.02
2018-12-30T04:03:32.627Z,16.90
2018-12-30T04:04:33.185Z,16.97
2018-12-30T04:05:33.754Z,16.97
2018-12-30T04:06:34.479Z,16.96
2018-12-30T04:07:35.052Z,16.90
2018-12-30T04:08:35.626Z,16.83
2018-12-30T04:09:36.250Z,16.84
2018-12-30T04:10:36.825Z,16.69
2018-12-30T04:11:37.401Z,16.69
2018-12-30T04:12:37.979Z,16.69
2018-12-30T04:13:38.552Z,16.75
2018-12-30T04:14:39.277Z,16.84
2018-12-30T04:15:39.811Z,16.84
2018-12-30T04:16:40.385Z,16.86
2018-12-30T04:17:40.960Z,16.86
2018-12-30T04:18:41.533Z,16.94
2018-12-30T04:19:42.106Z,16.97
2018-12-30T04:20:42.731Z,16.90
2018-12-30T04:21:43.308Z,16.90
2018-12-30T04:22:43.882Z,16.94
2018-12-30T04:23:44.457Z,16.89
2018-12-30T04:24:45.031Z,16.96
2018-12-30T04:25:45.605Z,16.84
2018-12-30T04:26:46.226Z,16.69
2018-12-30T04:27:46.799Z,16.65
2018-12-30T04:28:47.423Z,16.69
2018-12-30T04:29:47.995Z,16.64
2018-12-30T04:30:48.573Z,16.61
2018-12-30T04:31:49.144Z,16.61
2018-12-30T04:32:49.719Z,16.58
2018-12-30T04:33:50.293Z,16.65
2018-12-30T04:34:50.870Z,16.69
2018-12-30T04:35:51.442Z,16.72
2018-12-30T04:36:52.019Z,16.64
2018-12-30T04:37:52.640Z,16.61
2018-12-30T04:38:53.207Z,16.56
2018-12-30T04:39:53.832Z,16.61
2018-12-30T04:40:54.406Z,16.61
2018-12-30T04:41:54.984Z,16.68
2018-12-30T04:42:55.558Z,16.66
2018-12-30T04:43:56.134Z,16.58
2018-12-30T04:44:56.757Z,16.58
2018-12-30T04:45:57.330Z,16.58
2018-12-30T04:46:57.907Z,16.61
2018-12-30T04:47:58.573Z,16.71
2018-12-30T04:48:59.149Z,16.72
2018-12-30T04:49:59.724Z,16.79
2018-12-30T04:51:00.297Z,16.68
2018-12-30T04:52:00.885Z,16.60
2018-12-30T04:53:01.446Z,16.61
2018-12-30T04:54:02.019Z,16.72
2018-12-30T04:55:02.596Z,16.61
2018-12-30T04:56:03.165Z,16.57
2018-12-30T04:57:03.741Z,16.58
2018-12-30T04:58:04.314Z,16.61
2018-12-30T04:59:04.886Z,16.71
2018-12-30T05:00:05.460Z,16.74
2018-12-30T05:01:06.034Z,16.83
2018-12-30T05:02:06.665Z,16.84
2018-12-30T05:03:07.231Z,16.81
2018-12-30T05:04:07.856Z,16.96
2018-12-30T05:05:08.480Z,16.97
2018-12-30T05:06:09.054Z,16.99
2018-12-30T05:07:09.719Z,16.93
2018-12-30T05:08:10.239Z,16.89
2018-12-30T05:09:10.816Z,16.94
2018-12-30T05:10:11.385Z,16.84
2018-12-30T05:11:11.958Z,16.94
2018-12-30T05:12:12.534Z,16.93
2018-12-30T05:13:13.115Z,16.84
2018-12-30T05:14:13.686Z,16.68
2018-12-30T05:15:14.262Z,16.74
2018-12-30T05:16:14.836Z,16.75
2018-12-30T05:17:15.411Z,16.66
2018-12-30T05:18:15.985Z,16.69
2018-12-30T05:19:16.612Z,16.69
2018-12-30T05:20:17.235Z,16.78
2018-12-30T05:21:17.847Z,16.78
2018-12-30T05:22:18.419Z,16.78
2018-12-30T05:23:18.993Z,16.79
2018-12-30T05:24:19.620Z,16.74
2018-12-30T05:25:20.194Z,16.81
2018-12-30T05:26:20.768Z,16.93
2018-12-30T05:27:21.342Z,16.86
2018-12-30T05:28:21.915Z,16.90
2018-12-30T05:29:22.490Z,16.91
2018-12-30T05:30:23.063Z,16.84
2018-12-30T05:31:23.636Z,16.94
2018-12-30T05:32:24.208Z,16.94
2018-12-30T05:33:24.798Z,16.86
2018-12-30T05:34:25.443Z,16.79
2018-12-30T05:35:25.995Z,16.72
2018-12-30T05:36:26.621Z,16.65
2018-12-30T05:37:27.194Z,16.68
2018-12-30T05:38:27.769Z,16.64
2018-12-30T05:39:28.388Z,16.66
2018-12-30T05:40:28.960Z,16.58
2018-12-30T05:41:29.535Z,16.60
2018-12-30T05:42:30.106Z,16.56
2018-12-30T05:43:30.685Z,16.42
2018-12-30T05:44:31.254Z,16.54
2018-12-30T05:45:31.828Z,16.60
2018-12-30T05:46:32.401Z,16.56
2018-12-30T05:47:33.027Z,16.50
2018-12-30T05:50:19.571Z,16.64
2018-12-30T05:57:13.676Z,16.43
2018-12-30T05:58:39.915Z,16.41
2018-12-30T05:59:40.481Z,16.43
2018-12-30T06:00:41.050Z,16.41
2018-12-30T06:01:41.615Z,16.42
2018-12-30T06:02:42.181Z,16.36
2018-12-30T06:03:42.750Z,16.35
2018-12-30T06:04:43.317Z,16.35
2018-12-30T06:05:43.883Z,16.33
2018-12-30T06:06:44.452Z,16.33
2018-12-30T06:07:45.021Z,16.35
2018-12-30T06:08:45.584Z,16.32
2018-12-30T06:09:46.153Z,16.35
2018-12-30T06:10:46.721Z,16.39
2018-12-30T06:11:47.380Z,16.35
2018-12-30T06:12:48.045Z,16.31
2018-12-30T06:13:48.613Z,16.26
2018-12-30T06:14:49.232Z,16.28
2018-12-30T06:15:49.801Z,16.24
2018-12-30T06:16:50.370Z,16.26
2018-12-30T06:17:50.940Z,16.33
2018-12-30T06:18:51.509Z,16.24
2018-12-30T06:19:52.076Z,16.23
2018-12-30T06:20:52.646Z,16.32
2018-12-30T06:21:53.215Z,16.17
2018-12-30T06:22:53.782Z,16.16
2018-12-30T06:23:54.352Z,16.29
2018-12-30T06:24:54.921Z,16.17
2018-12-30T06:25:55.491Z,16.17
2018-12-30T06:26:56.059Z,16.21
2018-12-30T06:27:56.672Z,16.26
2018-12-30T06:28:57.292Z,16.16
2018-12-30T06:29:57.911Z,16.20
2018-12-30T06:30:58.581Z,16.12
2018-12-30T06:31:59.153Z,16.05
2018-12-30T06:32:59.817Z,16.08
2018-12-30T06:34:00.586Z,16.08
2018-12-30T06:35:01.196Z,16.01
2018-12-30T06:36:01.765Z,16.05
2018-12-30T06:37:02.333Z,16.05
2018-12-30T06:38:02.943Z,16.10
2018-12-30T06:39:03.512Z,16.02
2018-12-30T06:40:11.111Z,16.08
2018-12-30T06:41:05.644Z,16.12
2018-12-30T06:42:06.262Z,16.02
2018-12-30T06:43:06.829Z,16.04
2018-12-30T06:44:07.399Z,16.10
2018-12-30T06:45:07.968Z,16.08
2018-12-30T06:46:08.537Z,16.05
2018-12-30T06:47:09.106Z,16.04
2018-12-30T06:48:09.726Z,16.04
2018-12-30T06:49:10.700Z,16.04
2018-12-30T06:50:11.315Z,16.01
2018-12-30T06:51:11.886Z,16.08
2018-12-30T06:52:12.454Z,15.94
2018-12-30T06:53:13.074Z,15.97
2018-12-30T06:54:13.643Z,16.05
2018-12-30T06:55:14.210Z,15.97
2018-12-30T06:56:14.782Z,16.09
2018-12-30T06:57:15.352Z,15.97
2018-12-30T06:58:15.919Z,16.00
2018-12-30T06:59:16.489Z,16.00
2018-12-30T07:00:17.059Z,15.95
2018-12-30T07:01:17.625Z,15.97
2018-12-30T07:02:18.195Z,16.00
2018-12-30T07:03:18.764Z,16.08
2018-12-30T07:04:19.331Z,16.04
2018-12-30T07:05:19.950Z,16.02
2018-12-30T07:06:20.518Z,16.01
2018-12-30T07:07:21.138Z,15.94
2018-12-30T07:08:21.707Z,16.02
2018-12-30T07:09:22.333Z,15.98
2018-12-30T07:10:22.893Z,16.00
2018-12-30T07:11:23.463Z,15.97
2018-12-30T07:12:24.076Z,15.95
2018-12-30T07:13:24.643Z,15.98
2018-12-30T07:14:25.211Z,15.90
2018-12-30T07:15:25.780Z,15.86
2018-12-30T07:16:26.349Z,15.88
2018-12-30T07:17:26.915Z,15.88
2018-12-30T07:18:27.483Z,15.91
2018-12-30T07:19:28.053Z,15.90
2018-12-30T07:20:28.621Z,15.91
2018-12-30T07:21:29.239Z,15.88
2018-12-30T07:22:29.810Z,15.88
2018-12-30T07:23:30.428Z,15.84
2018-12-30T07:24:30.995Z,15.86
2018-12-30T07:25:31.615Z,15.86
2018-12-30T07:26:32.184Z,15.82
2018-12-30T07:27:32.803Z,15.90
2018-12-30T07:28:33.369Z,15.86
2018-12-30T07:29:33.940Z,15.88
2018-12-30T07:30:34.507Z,15.84
2018-12-30T07:31:35.076Z,15.84
2018-12-30T07:32:35.647Z,15.82
2018-12-30T07:33:36.213Z,15.86
2018-12-30T07:34:36.781Z,15.79
2018-12-30T07:35:37.351Z,15.86
2018-12-30T07:36:37.918Z,15.73
2018-12-30T07:37:38.485Z,15.76
2018-12-30T07:38:39.106Z,15.83
2018-12-30T07:39:39.673Z,15.92
2018-12-30T07:40:40.292Z,15.80
2018-12-30T07:41:40.860Z,15.83
2018-12-30T07:42:41.428Z,15.75
2018-12-30T07:43:41.998Z,15.73
2018-12-30T07:44:42.566Z,15.75
2018-12-30T07:45:43.133Z,15.77
2018-12-30T07:46:43.703Z,15.79
2018-12-30T07:47:44.274Z,15.80
2018-12-30T07:48:44.891Z,15.77
2018-12-30T07:49:45.502Z,15.73
2018-12-30T07:50:46.070Z,15.79
2018-12-30T07:51:46.638Z,15.76
2018-12-30T07:52:47.207Z,15.75
2018-12-30T07:53:47.776Z,15.82
2018-12-30T07:54:48.346Z,15.83
2018-12-30T07:55:48.913Z,15.80
2018-12-30T07:56:49.482Z,15.70
2018-12-30T07:57:50.202Z,15.72
2018-12-30T07:58:50.771Z,15.72
2018-12-30T07:59:51.340Z,15.76
2018-12-30T08:00:51.912Z,15.84
2018-12-30T08:01:52.477Z,15.90
2018-12-30T08:02:53.096Z,15.91
2018-12-30T08:03:53.667Z,15.83
2018-12-30T08:04:54.238Z,15.82
2018-12-30T08:05:54.856Z,15.83
2018-12-30T08:06:55.423Z,15.77
2018-12-30T08:07:55.992Z,15.79
2018-12-30T08:08:56.561Z,15.79
2018-12-30T08:09:57.129Z,15.75
2018-12-30T08:10:57.751Z,15.76
2018-12-30T08:11:58.316Z,15.73
2018-12-30T08:12:58.886Z,15.82
2018-12-30T08:13:59.456Z,15.77
2018-12-30T08:15:00.023Z,15.83
2018-12-30T08:16:00.593Z,15.80
2018-12-30T08:17:01.161Z,15.84
2018-12-30T08:18:01.779Z,15.79
2018-12-30T08:19:02.349Z,15.79
2018-12-30T08:20:02.917Z,15.82
2018-12-30T08:21:03.536Z,15.84
2018-12-30T08:22:04.155Z,15.91
2018-12-30T08:23:04.731Z,15.79
2018-12-30T08:24:05.292Z,15.82
2018-12-30T08:25:05.859Z,15.92
2018-12-30T08:26:06.426Z,15.98
2018-12-30T08:27:06.994Z,16.02
2018-12-30T08:28:07.612Z,15.97
2018-12-30T08:29:08.182Z,15.95
2018-12-30T08:30:08.750Z,15.95
2018-12-30T08:31:09.317Z,15.92
2018-12-30T08:32:09.886Z,15.92
2018-12-30T08:33:10.453Z,16.09
2018-12-30T08:34:11.022Z,16.00
2018-12-30T08:35:11.593Z,16.00
2018-12-30T08:36:12.209Z,15.98
2018-12-30T08:37:12.777Z,16.02
2018-12-30T08:38:13.397Z,16.09
2018-12-30T08:39:14.061Z,16.10
2018-12-30T08:40:14.585Z,16.04
2018-12-30T08:41:15.153Z,16.02
2018-12-30T08:42:15.721Z,16.02
2018-12-30T08:43:17.289Z,16.01
2018-12-30T08:44:16.902Z,15.95
2018-12-30T08:45:17.469Z,16.00
2018-12-30T08:46:18.038Z,15.95
2018-12-30T08:47:18.610Z,16.04
2018-12-30T08:48:19.174Z,16.05
2018-12-30T08:49:19.745Z,16.04
2018-12-30T08:50:20.315Z,15.91
2018-12-30T08:51:20.881Z,15.98
2018-12-30T08:52:21.451Z,15.86
2018-12-30T08:53:29.175Z,15.86
2018-12-30T08:54:23.632Z,15.92
2018-12-30T08:55:24.199Z,15.90
2018-12-30T08:56:24.818Z,15.91
2018-12-30T08:57:25.438Z,16.01
2018-12-30T08:58:26.007Z,16.00
2018-12-30T08:59:26.575Z,16.02
2018-12-30T09:00:27.142Z,16.05
2018-12-30T09:01:28.502Z,16.02
2018-12-30T09:02:29.234Z,15.98
2018-12-30T09:03:29.803Z,16.02
2018-12-30T09:04:30.372Z,15.95
2018-12-30T09:05:30.943Z,15.97
2018-12-30T09:06:31.515Z,15.95
2018-12-30T09:07:32.126Z,15.94
2018-12-30T09:08:32.694Z,15.95
2018-12-30T09:09:33.265Z,15.83
2018-12-30T09:10:33.833Z,15.84
2018-12-30T09:11:34.452Z,15.84
2018-12-30T09:12:35.020Z,15.92
2018-12-30T09:13:35.637Z,15.84
2018-12-30T09:14:36.258Z,15.83
2018-12-30T09:15:36.843Z,15.86
2018-12-30T09:16:37.396Z,15.83
2018-12-30T09:17:37.968Z,15.88
2018-12-30T09:18:38.535Z,15.86
2018-12-30T09:19:39.104Z,15.82
2018-12-30T09:20:39.674Z,15.82
2018-12-30T09:21:40.284Z,15.80
2018-12-30T09:22:40.857Z,15.82
2018-12-30T09:23:41.428Z,15.94
2018-12-30T09:24:41.991Z,15.83
2018-12-30T09:25:42.612Z,15.86
2018-12-30T09:26:43.180Z,15.79
2018-12-30T09:27:43.800Z,15.86
2018-12-30T09:28:49.423Z,15.82
2018-12-30T09:29:50.039Z,15.77
2018-12-30T09:30:50.607Z,15.79
2018-12-30T09:31:51.176Z,15.83
2018-12-30T09:32:51.744Z,15.83
2018-12-30T09:33:52.361Z,15.80
2018-12-30T09:34:52.933Z,15.82
2018-12-30T09:35:53.497Z,15.86
2018-12-30T09:36:54.064Z,15.83
2018-12-30T09:37:54.633Z,15.88
2018-12-30T09:38:55.201Z,15.92
2018-12-30T09:39:55.774Z,15.98
2018-12-30T09:40:56.346Z,15.92
2018-12-30T09:41:57.004Z,15.98
2018-12-30T09:42:57.574Z,15.97
2018-12-30T09:43:58.143Z,15.94
2018-12-30T09:44:59.561Z,15.97
2018-12-30T09:46:00.132Z,15.97
2018-12-30T09:47:00.766Z,15.97
2018-12-30T09:48:01.299Z,15.98
2018-12-30T09:49:01.867Z,16.00
2018-12-30T09:50:02.437Z,16.01
2018-12-30T09:51:03.010Z,16.00
2018-12-30T09:52:03.574Z,16.01
2018-12-30T09:53:04.194Z,16.00
2018-12-30T09:54:04.762Z,15.95
2018-12-30T09:55:05.331Z,16.01
2018-12-30T09:56:05.899Z,16.00
2018-12-30T09:57:06.667Z,16.08
2018-12-30T09:58:07.236Z,16.05
2018-12-30T09:59:07.804Z,16.05
2018-12-30T10:00:08.373Z,16.04
2018-12-30T10:01:08.941Z,16.05
2018-12-30T10:02:09.563Z,16.09
2018-12-30T10:03:10.133Z,16.08
2018-12-30T10:04:10.696Z,16.04
2018-12-30T10:05:11.267Z,16.12
2018-12-30T10:06:11.836Z,16.24
2018-12-30T10:07:12.402Z,16.16
2018-12-30T10:08:12.972Z,16.23
2018-12-30T10:09:13.591Z,16.24
2018-12-30T10:10:14.160Z,16.09
2018-12-30T10:11:14.727Z,16.20
2018-12-30T10:12:15.294Z,16.16
2018-12-30T10:13:15.913Z,16.23
2018-12-30T10:14:16.485Z,16.16
2018-12-30T10:15:17.052Z,16.23
2018-12-30T10:16:17.623Z,16.20
2018-12-30T10:17:18.235Z,16.32
2018-12-30T10:18:18.803Z,16.23
2018-12-30T10:19:19.373Z,16.24
2018-12-30T10:20:19.943Z,16.26
2018-12-30T10:21:20.561Z,16.29
2018-12-30T10:22:21.129Z,16.33
2018-12-30T10:23:21.697Z,16.36
2018-12-30T10:24:22.268Z,16.41
2018-12-30T10:25:22.835Z,16.33
2018-12-30T10:26:23.454Z,16.33
2018-12-30T10:27:24.022Z,16.43
2018-12-30T10:28:24.590Z,16.42
2018-12-30T10:29:25.212Z,16.47
2018-12-30T10:30:26.724Z,16.50
2018-12-30T10:31:26.432Z,16.53
2018-12-30T10:32:27.006Z,16.58
2018-12-30T10:33:27.572Z,16.58
2018-12-30T10:34:28.141Z,16.57
2018-12-30T10:35:28.709Z,16.61
2018-12-30T10:36:29.280Z,16.65
2018-12-30T10:37:29.887Z,16.64
2018-12-30T10:38:30.456Z,16.61
2018-12-30T10:39:31.076Z,16.60
2018-12-30T10:40:31.648Z,16.69
2018-12-30T10:41:32.216Z,16.71
2018-12-30T10:42:32.786Z,16.78
2018-12-30T10:43:33.354Z,16.83
2018-12-30T10:44:33.923Z,16.86
2018-12-30T10:45:34.489Z,16.84
2018-12-30T10:46:35.060Z,16.93
2018-12-30T10:47:35.627Z,16.87
2018-12-30T10:48:36.349Z,16.90
2018-12-30T10:49:36.906Z,16.91
2018-12-30T10:50:37.473Z,16.81
2018-12-30T10:51:38.095Z,16.81
2018-12-30T10:52:38.707Z,16.89
2018-12-30T10:53:39.276Z,16.87
2018-12-30T10:54:39.846Z,16.84
2018-12-30T10:55:40.474Z,16.87
2018-12-30T10:56:41.100Z,16.87
2018-12-30T10:57:41.669Z,16.83
2018-12-30T10:58:42.240Z,16.84
2018-12-30T10:59:42.857Z,16.83
2018-12-30T11:00:43.427Z,16.86
2018-12-30T11:01:43.996Z,16.81
2018-12-30T11:02:44.564Z,16.83
2018-12-30T11:03:45.134Z,16.81
2018-12-30T11:04:45.705Z,16.84
2018-12-30T11:05:46.271Z,16.83
2018-12-30T11:06:46.842Z,16.83
2018-12-30T11:07:47.459Z,16.83
2018-12-30T11:08:48.029Z,16.76
2018-12-30T11:09:48.648Z,16.79
2018-12-30T11:10:49.216Z,16.76
2018-12-30T11:11:49.785Z,16.89
2018-12-30T11:12:50.351Z,16.86
2018-12-30T11:13:50.920Z,16.86
2018-12-30T11:14:51.490Z,16.91
2018-12-30T11:15:52.058Z,16.87
2018-12-30T11:16:52.626Z,16.90
2018-12-30T11:17:53.247Z,16.94
2018-12-30T11:18:53.818Z,16.96
2018-12-30T11:19:54.384Z,17.05
2018-12-30T11:20:54.955Z,16.91
2018-12-30T11:21:55.525Z,17.02
2018-12-30T11:22:56.093Z,16.96
2018-12-30T11:23:56.665Z,16.93
2018-12-30T11:24:57.281Z,16.96
2018-12-30T11:25:57.900Z,16.91
2018-12-30T11:26:58.470Z,16.93
2018-12-30T11:27:59.038Z,16.94
2018-12-30T11:28:59.607Z,16.97
2018-12-30T11:30:00.273Z,16.90
2018-12-30T11:31:00.782Z,16.93
2018-12-30T11:32:01.353Z,16.94
2018-12-30T11:33:01.925Z,16.91
2018-12-30T11:34:02.493Z,16.94
2018-12-30T11:35:03.063Z,16.97
2018-12-30T11:36:03.631Z,17.01
2018-12-30T11:37:04.202Z,16.99
2018-12-30T11:38:04.820Z,16.99
2018-12-30T11:39:05.386Z,16.99
2018-12-30T11:40:05.958Z,17.01
2018-12-30T11:41:06.526Z,17.02
2018-12-30T11:42:07.144Z,17.05
2018-12-30T11:43:07.714Z,17.05
2018-12-30T11:44:08.283Z,16.99
2018-12-30T11:45:08.904Z,17.04
2018-12-30T11:46:09.469Z,17.05
2018-12-30T11:47:10.084Z,17.04
2018-12-30T11:48:10.605Z,17.08
2018-12-30T11:49:11.175Z,17.05
2018-12-30T11:50:11.743Z,17.05
2018-12-30T11:51:12.311Z,17.09
2018-12-30T11:52:12.881Z,17.12
2018-12-30T11:53:13.450Z,17.06
2018-12-30T11:54:16.597Z,17.02
2018-12-30T11:55:15.582Z,17.01
2018-12-30T11:56:16.152Z,17.02
2018-12-30T11:57:16.727Z,17.06
2018-12-30T11:58:17.385Z,17.05
2018-12-30T11:59:17.957Z,17.08
2018-12-30T12:00:18.575Z,17.09
2018-12-30T12:01:19.144Z,17.02
2018-12-30T12:02:23.932Z,17.02
2018-12-30T12:03:20.322Z,17.08
2018-12-30T12:04:20.891Z,17.12
2018-12-30T12:05:21.517Z,17.16
2018-12-30T12:06:22.130Z,17.20
2018-12-30T12:07:22.706Z,17.27
2018-12-30T12:08:23.277Z,17.23
2018-12-30T12:09:23.851Z,17.27
2018-12-30T12:10:24.428Z,17.24
2018-12-30T12:11:25.002Z,17.20
2018-12-30T12:12:25.578Z,17.27
2018-12-30T12:13:26.192Z,17.24
2018-12-30T12:14:26.764Z,17.27
2018-12-30T12:15:27.336Z,17.34
2018-12-30T12:16:27.961Z,17.34
2018-12-30T12:17:28.583Z,17.31
2018-12-30T12:18:29.155Z,17.44
2018-12-30T12:19:29.728Z,17.42
2018-12-30T12:20:30.353Z,17.36
2018-12-30T12:21:30.926Z,17.36
2018-12-30T12:22:31.501Z,17.46
2018-12-30T12:23:32.075Z,17.34
2018-12-30T12:24:32.650Z,17.42
2018-12-30T12:25:33.222Z,17.39
2018-12-30T12:26:33.794Z,17.42
2018-12-30T12:27:34.370Z,17.36
2018-12-30T12:28:34.940Z,17.41
2018-12-30T12:29:35.515Z,17.36
2018-12-30T12:30:36.189Z,17.39
2018-12-30T12:31:36.861Z,17.41
2018-12-30T12:32:37.535Z,17.42
2018-12-30T12:33:38.108Z,17.44
2018-12-30T12:34:38.680Z,17.41
2018-12-30T12:35:39.253Z,17.44
2018-12-30T12:36:39.828Z,17.41
2018-12-30T12:37:40.405Z,17.41
2018-12-30T12:38:40.976Z,17.42
2018-12-30T12:39:41.550Z,17.45
2018-12-30T12:40:42.124Z,17.44
2018-12-30T12:41:42.698Z,17.44
2018-12-30T12:42:43.271Z,17.42
2018-12-30T12:43:43.845Z,17.29
2018-12-30T12:44:44.420Z,17.45
2018-12-30T12:45:44.996Z,17.42
2018-12-30T12:46:45.568Z,17.44
2018-12-30T12:47:46.192Z,17.36
2018-12-30T12:48:46.766Z,17.42
2018-12-30T12:49:47.393Z,17.34
2018-12-30T12:50:47.967Z,17.42
2018-12-30T12:51:48.544Z,17.31
2018-12-30T12:52:49.117Z,17.42
2018-12-30T12:53:49.694Z,17.44
2018-12-30T12:54:50.269Z,17.39
2018-12-30T12:55:50.932Z,17.42
2018-12-30T12:56:51.455Z,17.41
2018-12-30T12:57:52.077Z,17.46
2018-12-30T12:58:52.652Z,17.39
2018-12-30T12:59:53.269Z,17.39
2018-12-30T13:00:53.846Z,17.38
2018-12-30T13:01:54.419Z,17.42
2018-12-30T13:02:54.999Z,17.44
2018-12-30T13:03:55.570Z,17.45
2018-12-30T13:04:56.148Z,17.34
2018-12-30T13:05:56.768Z,17.42
2018-12-30T13:06:57.343Z,17.41
2018-12-30T13:07:57.916Z,17.39
2018-12-30T13:08:58.489Z,17.38
2018-12-30T13:09:59.113Z,17.33
2018-12-30T13:10:59.685Z,17.30
2018-12-30T13:12:00.257Z,17.34
2018-12-30T13:13:00.880Z,17.39
2018-12-30T13:14:01.452Z,17.41
2018-12-30T13:15:02.026Z,17.39
2018-12-30T13:16:03.515Z,17.38
2018-12-30T13:17:04.172Z,17.44
2018-12-30T13:18:04.742Z,17.41
2018-12-30T13:19:05.317Z,17.39
2018-12-30T13:20:05.891Z,17.41
2018-12-30T13:21:06.465Z,17.42
2018-12-30T13:22:07.091Z,17.36
2018-12-30T13:23:07.663Z,17.45
2018-12-30T13:24:08.238Z,17.41
2018-12-30T13:25:08.811Z,17.42
2018-12-30T13:26:09.434Z,17.31
2018-12-30T13:27:10.009Z,17.44
2018-12-30T13:28:10.630Z,17.49